Time;durP1;ratioP1;P1;durP2;ratioP2;P2;SDS_P1;SDS_P2;PMS_P1;PMS_P2;Temp;Humidity;BMP_temperature;BMP_pressure;BME280_temperature;BME280_humidity;BME280_pressure;Samples;Min_cycle;Max_cycle;Signal;HPM_P1;HPM_P2
2021/07/07 00:00:55;;;;;;;16.95;9.60;;;19.30;99.90;;;;;;4430214;28;657224;-72
2021/07/07 00:03:43;;;;;;;14.23;10.60;;;19.20;99.90;;;;;;4449408;28;658175;-74
2021/07/07 00:06:32;;;;;;;13.02;10.00;;;19.20;99.90;;;;;;4429410;28;658251;-73
2021/07/07 00:09:20;;;;;;;13.00;10.10;;;19.10;99.90;;;;;;4431157;28;658714;-72
2021/07/07 00:12:08;;;;;;;14.37;10.70;;;19.10;99.90;;;;;;4446874;28;659107;-74
2021/07/07 00:14:56;;;;;;;13.43;10.27;;;19.20;99.90;;;;;;4440488;28;659874;-74
2021/07/07 00:17:43;;;;;;;16.23;10.37;;;19.10;99.90;;;;;;4454906;28;659174;-74
2021/07/07 00:20:35;;;;;;;13.50;10.47;;;19.10;99.90;;;;;;4441204;28;660080;-74
2021/07/07 00:23:25;;;;;;;16.77;10.53;;;19.00;99.90;;;;;;4431597;28;659047;-74
2021/07/07 00:26:12;;;;;;;14.60;10.63;;;19.00;99.90;;;;;;4426220;28;659107;-72
2021/07/07 00:29:00;;;;;;;13.97;11.20;;;19.00;99.90;;;;;;4436540;28;658907;-73
2021/07/07 00:31:47;;;;;;;14.77;10.83;;;18.90;99.90;;;;;;4457935;28;659336;-74
2021/07/07 00:34:35;;;;;;;14.37;11.20;;;18.80;99.90;;;;;;4433224;28;659052;-73
2021/07/07 00:37:22;;;;;;;15.60;11.87;;;18.80;99.90;;;;;;4458558;28;659128;-74
2021/07/07 00:40:13;;;;;;;14.30;11.17;;;18.70;99.90;;;;;;4428131;28;658947;-73
2021/07/07 00:43:00;;;;;;;17.03;11.57;;;18.70;99.90;;;;;;4434625;28;658445;-73
2021/07/07 00:45:48;;;;;;;14.67;11.73;;;18.60;99.90;;;;;;4454968;28;659742;-74
2021/07/07 00:48:35;;;;;;;14.80;11.03;;;18.60;99.90;;;;;;4444406;28;659136;-72
2021/07/07 00:51:23;;;;;;;18.17;11.90;;;18.60;99.90;;;;;;4455510;28;659006;-73
2021/07/07 00:54:10;;;;;;;15.80;12.23;;;18.50;99.90;;;;;;4431518;28;659431;-73
2021/07/07 00:57:00;;;;;;;15.83;11.77;;;18.50;99.90;;;;;;4448919;28;659055;-74
2021/07/07 00:59:49;;;;;;;15.73;11.70;;;18.50;99.90;;;;;;4435393;28;659217;-74
2021/07/07 01:02:38;;;;;;;14.17;10.93;;;18.50;99.90;;;;;;4424238;28;659901;-74
2021/07/07 01:05:25;;;;;;;17.20;11.33;;;18.50;99.90;;;;;;4442595;28;659861;-73
2021/07/07 01:08:13;;;;;;;17.80;11.70;;;18.50;99.90;;;;;;4459146;28;659328;-73
2021/07/07 01:11:00;;;;;;;17.03;11.17;;;18.40;99.90;;;;;;4429895;28;658677;-73
2021/07/07 01:13:49;;;;;;;16.63;11.53;;;18.40;99.90;;;;;;4458876;28;658829;-73
2021/07/07 01:16:37;;;;;;;15.97;11.90;;;18.40;99.90;;;;;;4433495;28;659097;-73
2021/07/07 01:19:25;;;;;;;18.53;11.57;;;18.30;99.90;;;;;;4437154;28;658581;-72
2021/07/07 01:22:14;;;;;;;15.73;11.00;;;18.20;99.90;;;;;;4457778;28;658940;-72
2021/07/07 01:25:01;;;;;;;19.40;11.60;;;18.10;99.90;;;;;;4429510;28;660086;-73
2021/07/07 01:27:49;;;;;;;17.53;12.40;;;18.10;99.90;;;;;;4453579;28;658340;-73
2021/07/07 01:30:36;;;;;;;17.47;12.17;;;18.00;99.90;;;;;;4437549;28;659491;-73
2021/07/07 01:33:24;;;;;;;21.97;12.57;;;17.90;99.90;;;;;;4448484;28;658998;-73
2021/07/07 01:36:11;;;;;;;15.10;12.03;;;17.90;99.90;;;;;;4432081;28;658927;-74
2021/07/07 01:39:01;;;;;;;17.63;11.73;;;17.80;99.90;;;;;;4448853;28;658475;-71
2021/07/07 01:41:49;;;;;;;18.23;12.47;;;17.80;99.90;;;;;;4448470;28;659053;-73
2021/07/07 01:44:36;;;;;;;15.93;12.37;;;17.80;99.90;;;;;;4434531;28;660571;-73
2021/07/07 01:47:24;;;;;;;16.10;12.07;;;17.70;99.90;;;;;;4455441;28;658735;-70
2021/07/07 01:50:13;;;;;;;20.03;13.20;;;17.60;99.90;;;;;;4466525;28;659595;-74
2021/07/07 01:53:00;;;;;;;16.97;12.40;;;17.60;99.90;;;;;;4438165;28;658623;-73
2021/07/07 01:55:50;;;;;;;16.37;12.43;;;17.60;99.90;;;;;;4471063;28;658463;-74
2021/07/07 01:58:38;;;;;;;17.87;12.37;;;17.60;99.90;;;;;;4435440;28;658487;-74
2021/07/07 02:01:26;;;;;;;16.47;12.17;;;17.60;99.90;;;;;;4439588;28;658892;-72
2021/07/07 02:04:13;;;;;;;17.43;13.23;;;17.50;99.90;;;;;;4450583;28;659004;-73
2021/07/07 02:07:01;;;;;;;15.37;12.50;;;17.50;99.90;;;;;;4435741;28;658765;-73
2021/07/07 02:09:48;;;;;;;16.53;13.37;;;17.40;99.90;;;;;;4460481;28;658374;-73
2021/07/07 02:12:37;;;;;;;20.70;13.20;;;17.40;99.90;;;;;;4446787;28;658642;-73
2021/07/07 02:15:26;;;;;;;16.57;12.50;;;17.40;99.90;;;;;;4430361;28;658453;-72
2021/07/07 02:18:13;;;;;;;18.90;12.67;;;17.30;99.90;;;;;;4466204;28;658775;-72
2021/07/07 02:21:01;;;;;;;17.93;12.53;;;17.20;99.90;;;;;;4442207;28;658718;-73
2021/07/07 02:23:48;;;;;;;17.30;12.77;;;17.20;99.90;;;;;;4462380;28;658414;-73
2021/07/07 02:26:39;;;;;;;16.43;12.80;;;17.10;99.90;;;;;;4431865;28;660610;-72
2021/07/07 02:29:28;;;;;;;20.70;13.87;;;17.10;99.90;;;;;;4442169;28;660097;-73
2021/07/07 02:32:16;;;;;;;17.80;13.23;;;17.10;99.90;;;;;;4435286;28;659419;-73
2021/07/07 02:35:04;;;;;;;16.67;13.10;;;17.10;99.90;;;;;;4468769;28;658140;-72
2021/07/07 02:38:29;;;;;;;18.70;14.07;;;17.10;99.90;;;;;;4432191;28;659240;-73
2021/07/07 02:41:52;;;;;;;17.10;13.40;;;17.00;99.90;;;;;;4421655;28;658811;-73
2021/07/07 02:44:41;;;;;;;23.67;13.37;;;17.00;99.90;;;;;;4413281;28;658978;-71
2021/07/07 02:47:28;;;;;;;18.23;13.27;;;17.00;99.90;;;;;;4449224;28;658624;-73
2021/07/07 02:50:17;;;;;;;19.63;13.80;;;17.00;99.90;;;;;;4430314;28;659196;-73
2021/07/07 02:53:06;;;;;;;19.10;14.10;;;17.00;99.90;;;;;;4446018;28;658826;-72
2021/07/07 02:55:54;;;;;;;17.53;13.40;;;17.00;99.90;;;;;;4466037;28;658642;-73
2021/07/07 02:58:41;;;;;;;19.50;13.67;;;17.00;99.90;;;;;;4442605;28;659950;-73
2021/07/07 03:01:30;;;;;;;18.23;13.77;;;17.00;99.90;;;;;;4454833;28;658392;-73
2021/07/07 03:04:18;;;;;;;20.73;13.60;;;16.90;99.90;;;;;;4427369;28;659732;-73
2021/07/07 03:07:05;;;;;;;21.90;13.40;;;16.90;99.90;;;;;;4438534;28;658963;-72
2021/07/07 03:09:53;;;;;;;20.37;14.00;;;17.00;99.90;;;;;;4448669;28;659802;-72
2021/07/07 03:12:40;;;;;;;20.17;13.57;;;17.00;99.90;;;;;;4442232;28;658576;-72
2021/07/07 03:15:28;;;;;;;19.43;13.77;;;17.00;99.90;;;;;;4464760;28;659520;-73
2021/07/07 03:18:17;;;;;;;20.87;14.13;;;17.10;99.90;;;;;;4445215;28;658484;-72
2021/07/07 03:21:05;;;;;;;20.20;14.53;;;17.10;99.90;;;;;;4435457;28;658822;-71
2021/07/07 03:23:52;;;;;;;17.33;14.23;;;17.20;99.90;;;;;;4454409;28;658989;-72
2021/07/07 03:26:40;;;;;;;20.20;14.33;;;17.20;99.90;;;;;;4436635;28;658893;-72
2021/07/07 03:29:27;;;;;;;21.77;14.60;;;17.20;99.90;;;;;;4449854;28;659332;-73
2021/07/07 03:32:15;;;;;;;19.73;13.67;;;17.20;99.90;;;;;;4437148;28;658847;-72
2021/07/07 03:35:07;;;;;;;18.10;13.70;;;17.30;99.90;;;;;;4456410;28;658955;-72
2021/07/07 03:37:56;;;;;;;19.20;14.30;;;17.30;99.90;;;;;;4412807;28;658861;-71
2021/07/07 03:40:44;;;;;;;19.60;14.03;;;17.40;99.90;;;;;;4463210;28;659613;-72
2021/07/07 03:43:33;;;;;;;21.37;15.10;;;17.40;99.90;;;;;;4427434;28;659990;-72
2021/07/07 03:46:22;;;;;;;24.40;14.77;;;17.50;99.90;;;;;;4429440;28;658883;-71
2021/07/07 03:49:10;;;;;;;22.70;15.50;;;17.60;99.90;;;;;;4444995;28;658635;-70
2021/07/07 03:52:00;;;;;;;21.17;14.07;;;17.70;99.90;;;;;;4458693;28;659882;-72
2021/07/07 03:54:49;;;;;;;19.20;14.77;;;17.70;99.90;;;;;;4432590;28;659003;-72
2021/07/07 03:57:37;;;;;;;21.93;14.70;;;17.80;99.90;;;;;;4425880;28;659874;-72
2021/07/07 04:00:29;;;;;;;21.73;14.50;;;17.90;99.90;;;;;;4442527;28;658920;-72
2021/07/07 04:03:18;;;;;;;20.33;14.63;;;18.00;99.90;;;;;;4436974;28;659855;-72
2021/07/07 04:06:05;;;;;;;21.00;13.93;;;18.10;99.90;;;;;;4440495;28;658826;-72
2021/07/07 04:08:54;;;;;;;22.50;15.20;;;18.30;99.90;;;;;;4460083;28;658721;-72
2021/07/07 04:11:44;;;;;;;18.47;15.27;;;18.40;99.90;;;;;;4435887;28;660100;-72
2021/07/07 04:14:33;;;;;;;18.50;14.47;;;18.40;99.90;;;;;;4444227;28;659728;-72
2021/07/07 04:17:21;;;;;;;20.43;15.07;;;18.60;99.90;;;;;;4428649;28;658908;-72
2021/07/07 04:20:12;;;;;;;19.03;13.83;;;18.70;99.90;;;;;;4452913;28;658592;-70
2021/07/07 04:23:02;;;;;;;20.47;14.33;;;18.80;99.90;;;;;;4441919;28;659317;-70
2021/07/07 04:25:54;;;;;;;22.40;14.13;;;18.90;99.90;;;;;;4441434;28;659196;-73
2021/07/07 04:28:46;;;;;;;21.30;14.03;;;19.10;99.90;;;;;;4433785;28;659467;-72
2021/07/07 04:31:35;;;;;;;17.13;13.40;;;19.20;99.90;;;;;;4430828;28;658923;-72
2021/07/07 04:34:28;;;;;;;18.87;14.33;;;19.30;99.90;;;;;;4423499;28;658961;-72
2021/07/07 04:37:17;;;;;;;21.10;13.50;;;19.50;99.90;;;;;;4438265;28;658673;-72
2021/07/07 04:40:07;;;;;;;20.87;13.53;;;19.60;99.90;;;;;;4444673;28;658778;-71
2021/07/07 04:42:56;;;;;;;21.37;14.30;;;19.70;99.90;;;;;;4446018;28;658796;-70
2021/07/07 04:45:45;;;;;;;17.50;13.07;;;19.90;99.90;;;;;;4463158;28;659173;-73
2021/07/07 04:48:36;;;;;;;17.67;13.13;;;20.10;99.90;;;;;;4431472;28;659678;-72
2021/07/07 04:51:27;;;;;;;17.97;13.93;;;20.20;99.90;;;;;;4426184;28;658987;-72
2021/07/07 04:54:16;;;;;;;22.27;13.50;;;20.40;99.90;;;;;;4419261;28;658440;-71
2021/07/07 04:57:09;;;;;;;18.80;12.90;;;20.50;99.90;;;;;;4461282;28;658817;-73
2021/07/07 05:00:05;;;;;;;18.03;13.10;;;20.60;99.90;;;;;;4416346;28;658890;-73
2021/07/07 05:02:57;;;;;;;18.17;13.50;;;20.80;99.90;;;;;;4427414;28;659512;-72
2021/07/07 05:05:45;;;;;;;17.73;13.33;;;20.90;99.90;;;;;;4421137;28;659386;-70
2021/07/07 05:08:35;;;;;;;17.20;13.40;;;21.10;99.90;;;;;;4447765;28;659480;-72
2021/07/07 05:11:25;;;;;;;17.53;13.23;;;21.20;99.90;;;;;;4438965;28;659736;-72
2021/07/07 05:14:15;;;;;;;16.47;11.97;;;21.40;99.90;;;;;;4440264;28;659266;-72
2021/07/07 05:17:08;;;;;;;16.40;12.07;;;21.60;99.90;;;;;;4440242;28;659847;-72
2021/07/07 05:19:55;;;;;;;20.47;12.33;;;21.70;99.90;;;;;;4409205;28;658884;-72
2021/07/07 05:22:43;;;;;;;16.33;11.13;;;21.90;99.90;;;;;;4447210;28;658776;-73
2021/07/07 05:25:32;;;;;;;14.30;11.17;;;22.00;99.90;;;;;;4435329;28;659515;-72
2021/07/07 05:28:20;;;;;;;17.50;11.10;;;22.20;99.90;;;;;;4431057;28;659217;-72
2021/07/07 05:31:08;;;;;;;15.75;10.07;;;22.30;99.90;;;;;;4463378;28;658926;-73
2021/07/07 05:33:57;;;;;;;16.13;10.53;;;22.50;99.90;;;;;;4446082;28;658827;-73
2021/07/07 05:36:48;;;;;;;14.00;10.63;;;22.70;99.90;;;;;;4439796;28;658760;-70
2021/07/07 05:39:36;;;;;;;12.50;9.80;;;22.90;99.90;;;;;;4439726;28;658595;-72
2021/07/07 05:42:23;;;;;;;14.43;9.30;;;23.00;99.90;;;;;;4463299;28;657308;-73
2021/07/07 05:45:11;;;;;;;15.13;10.60;;;23.10;99.90;;;;;;4436282;28;658423;-73
2021/07/07 05:47:59;;;;;;;14.30;10.70;;;23.30;99.90;;;;;;4448932;28;658915;-71
2021/07/07 05:50:49;;;;;;;14.53;9.10;;;23.50;99.90;;;;;;4466038;28;660070;-73
2021/07/07 05:53:36;;;;;;;9.90;7.83;;;23.60;99.90;;;;;;4443489;28;658982;-73
2021/07/07 05:56:25;;;;;;;8.40;6.77;;;23.70;99.90;;;;;;4463524;28;656942;-71
2021/07/07 05:59:12;;;;;;;7.30;6.17;;;23.80;99.90;;;;;;4467312;28;657625;-73
2021/07/07 06:02:00;;;;;;;6.67;5.40;;;23.90;99.90;;;;;;4440896;28;656733;-72
2021/07/07 06:04:48;;;;;;;7.20;6.00;;;24.10;99.90;;;;;;4460682;28;657468;-72
2021/07/07 06:07:37;;;;;;;8.70;6.70;;;24.20;99.90;;;;;;4436453;28;657492;-71
2021/07/07 06:10:25;;;;;;;9.37;6.70;;;24.40;99.90;;;;;;4439142;28;656507;-71
2021/07/07 06:13:13;;;;;;;8.47;6.07;;;24.50;99.90;;;;;;4466545;28;657723;-72
2021/07/07 06:16:01;;;;;;;7.07;5.97;;;24.70;99.90;;;;;;4445389;28;656390;-72
2021/07/07 06:18:49;;;;;;;7.37;6.00;;;24.80;99.90;;;;;;4471457;28;656334;-72
2021/07/07 06:21:37;;;;;;;10.43;6.60;;;24.90;99.90;;;;;;4438761;28;656940;-71
2021/07/07 06:24:26;;;;;;;10.07;6.13;;;25.10;99.90;;;;;;4434910;28;657787;-71
2021/07/07 06:27:14;;;;;;;10.10;7.07;;;25.30;99.90;;;;;;4450262;28;657315;-72
2021/07/07 06:30:01;;;;;;;9.68;7.10;;;25.30;99.90;;;;;;4428396;28;659007;-71
2021/07/07 06:32:49;;;;;;;11.82;7.90;;;25.40;99.90;;;;;;4450029;28;656071;-71
2021/07/07 06:35:37;;;;;;;14.88;8.00;;;25.50;99.90;;;;;;4426412;28;657891;-73
2021/07/07 06:38:25;;;;;;;9.93;7.43;;;25.70;99.90;;;;;;4443234;28;657506;-72
2021/07/07 06:41:14;;;;;;;12.18;7.40;;;25.70;99.90;;;;;;4464537;28;657970;-72
2021/07/07 06:44:01;;;;;;;10.02;7.00;;;25.80;99.90;;;;;;4442899;28;658679;-71
2021/07/07 06:46:49;;;;;;;9.75;7.40;;;25.90;99.90;;;;;;4459032;28;657996;-72
2021/07/07 06:49:36;;;;;;;10.00;7.30;;;26.00;99.90;;;;;;4436809;28;657877;-71
2021/07/07 06:52:24;;;;;;;10.75;7.80;;;26.00;99.90;;;;;;4454555;28;657542;-71
2021/07/07 06:55:13;;;;;;;9.40;8.13;;;26.00;99.90;;;;;;4464492;28;658622;-72
2021/07/07 06:58:02;;;;;;;13.35;8.63;;;26.20;99.90;;;;;;4432506;28;656875;-72
2021/07/07 07:00:49;;;;;;;11.02;8.15;;;26.30;99.90;;;;;;4450188;28;658387;-71
2021/07/07 07:03:37;;;;;;;12.60;7.47;;;26.30;99.90;;;;;;4470843;28;658723;-72
2021/07/07 07:06:27;;;;;;;13.38;8.48;;;26.30;99.90;;;;;;4441180;28;657667;-72
2021/07/07 07:09:15;;;;;;;10.20;8.10;;;26.50;99.90;;;;;;4445019;28;658184;-72
2021/07/07 07:12:03;;;;;;;12.32;8.23;;;26.60;99.90;;;;;;4466593;28;658255;-74
2021/07/07 07:14:53;;;;;;;13.20;8.68;;;26.60;99.90;;;;;;4428302;28;657539;-71
2021/07/07 07:17:41;;;;;;;11.68;8.60;;;26.70;99.90;;;;;;4435518;28;657693;-72
2021/07/07 07:20:29;;;;;;;18.73;9.73;;;26.80;99.90;;;;;;4460842;28;657756;-73
2021/07/07 07:23:18;;;;;;;12.52;8.80;;;26.90;99.90;;;;;;4428012;28;658323;-72
2021/07/07 07:26:06;;;;;;;13.68;8.80;;;27.00;99.90;;;;;;4436036;28;657505;-72
2021/07/07 07:28:54;;;;;;;17.42;8.35;;;27.10;99.90;;;;;;4466229;28;657684;-73
2021/07/07 07:31:43;;;;;;;11.13;8.48;;;27.30;99.90;;;;;;4432792;28;658292;-72
2021/07/07 07:34:30;;;;;;;12.45;9.23;;;27.50;99.90;;;;;;4440208;28;657794;-73
2021/07/07 07:37:24;;;;;;;18.13;9.35;;;27.70;99.90;;;;;;4459443;28;657883;-73
2021/07/07 07:40:12;;;;;;;11.10;8.95;;;27.70;99.90;;;;;;4411409;28;657763;-72
2021/07/07 07:43:00;;;;;;;13.07;8.98;;;27.90;99.90;;;;;;4436452;28;657961;-72
2021/07/07 07:45:48;;;;;;;15.95;9.57;;;28.10;99.90;;;;;;4457404;28;658109;-73
2021/07/07 07:48:37;;;;;;;15.68;9.15;;;28.20;99.90;;;;;;4437217;28;657948;-72
2021/07/07 07:51:25;;;;;;;15.13;9.48;;;28.30;99.90;;;;;;4445457;28;657537;-71
2021/07/07 07:54:12;;;;;;;12.80;9.00;;;28.40;99.90;;;;;;4458867;28;658202;-72
2021/07/07 07:57:00;;;;;;;12.07;8.77;;;28.40;99.90;;;;;;4437715;27;658228;-71
2021/07/07 07:59:48;;;;;;;9.70;7.80;;;28.30;99.90;;;;;;4466595;28;658131;-72
2021/07/07 08:02:40;;;;;;;9.32;8.02;;;28.60;99.90;;;;;;4440312;28;656433;-72
2021/07/07 08:05:29;;;;;;;11.07;6.82;;;28.90;99.90;;;;;;4500447;28;564046;-71
2021/07/07 08:08:17;;;;;;;7.68;6.07;;;29.10;99.90;;;;;;4439375;28;658482;-72
2021/07/07 08:11:05;;;;;;;9.13;5.95;;;29.20;99.90;;;;;;4432154;28;657144;-72
2021/07/07 08:13:53;;;;;;;8.00;5.75;;;29.10;99.90;;;;;;4460360;28;655958;-72
2021/07/07 08:16:40;;;;;;;7.03;5.85;;;29.20;99.90;;;;;;4439000;28;656664;-73
2021/07/07 08:19:28;;;;;;;9.40;5.22;;;29.30;99.90;;;;;;4465764;27;656401;-73
2021/07/07 08:22:18;;;;;;;6.68;5.20;;;29.30;99.90;;;;;;4440304;28;657083;-73
2021/07/07 08:25:06;;;;;;;7.07;5.18;;;29.60;99.90;;;;;;4438512;28;657021;-71
2021/07/07 08:27:54;;;;;;;9.52;4.72;;;29.60;99.90;;;;;;4455400;28;657420;-71
2021/07/07 08:30:44;;;;;;;6.97;4.50;;;29.70;99.90;;;;;;4432195;28;657003;-71
2021/07/07 08:33:34;;;;;;;4.18;3.60;;;30.00;99.90;;;;;;4440255;28;658739;-70
2021/07/07 08:36:26;;;;;;;6.10;4.30;;;30.20;99.90;;;;;;4440474;28;657104;-70
2021/07/07 08:39:18;;;;;;;4.80;3.92;;;30.60;99.90;;;;;;4443075;28;656881;-70
2021/07/07 08:42:07;;;;;;;4.63;4.07;;;30.80;99.90;;;;;;4439365;28;656732;-70
2021/07/07 08:44:55;;;;;;;5.53;3.60;;;30.90;99.90;;;;;;4446115;27;656579;-70
2021/07/07 08:47:44;;;;;;;5.63;3.67;;;31.10;99.90;;;;;;4465332;28;657366;-70
2021/07/07 08:50:32;;;;;;;5.05;3.58;;;31.10;99.90;;;;;;4438464;28;657965;-72
2021/07/07 08:53:20;;;;;;;6.22;3.95;;;31.10;99.90;;;;;;4436204;28;657321;-71
2021/07/07 08:56:09;;;;;;;8.10;3.80;;;30.80;99.00;;;;;;4464697;28;656937;-72
2021/07/07 08:58:57;;;;;;;4.40;3.53;;;31.10;99.80;;;;;;4440453;28;656728;-72
2021/07/07 09:02:04;;;;;;;5.20;3.63;;;31.30;96.90;;;;;;4439056;28;656403;-71
2021/07/07 09:04:51;;;;;;;5.97;3.38;;;31.40;96.50;;;;;;4442158;28;656543;-72
2021/07/07 09:07:40;;;;;;;4.75;3.70;;;31.50;96.10;;;;;;4451383;28;656430;-70
2021/07/07 09:10:29;;;;;;;6.70;3.58;;;31.80;95.70;;;;;;4460829;28;657156;-72
2021/07/07 09:13:20;;;;;;;3.35;2.78;;;31.40;94.80;;;;;;4429211;28;657833;-71
2021/07/07 09:16:11;;;;;;;8.17;3.03;;;31.50;92.90;;;;;;4426505;28;656972;-73
2021/07/07 09:18:59;;;;;;;4.50;2.90;;;31.60;90.60;;;;;;4434614;28;657191;-72
2021/07/07 09:21:50;;;;;;;3.38;2.72;;;31.70;89.90;;;;;;4436180;28;657358;-72
2021/07/07 09:24:38;;;;;;;9.45;3.10;;;31.80;86.40;;;;;;4413867;28;657336;-72
2021/07/07 09:27:27;;;;;;;3.15;2.70;;;32.00;87.90;;;;;;4442530;28;656058;-73
2021/07/07 09:30:17;;;;;;;3.28;2.97;;;32.10;81.00;;;;;;4440598;28;656463;-72
2021/07/07 09:33:05;;;;;;;6.65;2.67;;;32.30;79.80;;;;;;4417009;28;657069;-70
2021/07/07 09:35:52;;;;;;;6.68;2.50;;;32.40;79.80;;;;;;4440565;28;656459;-71
2021/07/07 09:38:40;;;;;;;4.97;2.85;;;32.40;79.90;;;;;;4433051;28;656838;-72
2021/07/07 09:41:28;;;;;;;3.15;2.78;;;32.20;73.60;;;;;;4446027;28;658066;-73
2021/07/07 09:44:17;;;;;;;6.70;3.00;;;32.00;76.80;;;;;;4423236;28;657017;-73
2021/07/07 09:47:07;;;;;;;4.40;2.63;;;32.20;80.00;;;;;;4423218;28;656458;-73
2021/07/07 09:49:55;;;;;;;4.28;3.05;;;32.70;78.60;;;;;;4419938;28;656812;-72
2021/07/07 09:52:42;;;;;;;3.45;2.53;;;33.20;75.80;;;;;;4440181;28;657351;-71
2021/07/07 09:55:30;;;;;;;4.38;2.60;;;33.50;73.90;;;;;;4429981;28;656441;-70
2021/07/07 09:58:18;;;;;;;8.05;2.78;;;33.00;68.00;;;;;;4451235;28;657965;-72
2021/07/07 10:01:05;;;;;;;3.80;2.53;;;32.70;71.50;;;;;;4439112;28;656882;-70
2021/07/07 10:03:55;;;;;;;6.47;2.30;;;32.80;71.20;;;;;;4448001;28;656474;-72
2021/07/07 10:06:43;;;;;;;4.18;1.90;;;32.90;71.00;;;;;;4429275;28;656752;-70
2021/07/07 10:09:30;;;;;;;3.22;2.17;;;33.10;67.90;;;;;;4438134;28;656605;-73
2021/07/07 10:12:18;;;;;;;2.95;2.17;;;33.20;70.80;;;;;;4464041;28;656601;-73
2021/07/07 10:15:07;;;;;;;2.30;2.03;;;33.10;69.60;;;;;;4442704;28;656598;-75
2021/07/07 10:17:55;;;;;;;4.53;2.00;;;33.40;68.70;;;;;;4439254;28;656625;-73
2021/07/07 10:20:44;;;;;;;4.13;2.10;;;33.90;70.60;;;;;;4445775;28;657558;-71
2021/07/07 10:23:32;;;;;;;2.40;1.97;;;34.00;66.10;;;;;;4431888;28;658172;-71
2021/07/07 10:26:21;;;;;;;3.95;2.20;;;34.50;68.60;;;;;;4434565;28;656430;-71
2021/07/07 10:29:09;;;;;;;2.67;2.03;;;34.50;64.50;;;;;;4450541;28;657552;-72
2021/07/07 10:31:57;;;;;;;2.10;1.85;;;34.70;62.50;;;;;;4434164;28;657405;-73
2021/07/07 10:34:45;;;;;;;3.35;2.03;;;34.70;61.90;;;;;;4419461;28;656356;-72
2021/07/07 10:37:35;;;;;;;2.90;2.25;;;35.00;63.30;;;;;;4443600;28;658435;-72
2021/07/07 10:40:24;;;;;;;3.57;2.17;;;35.10;61.20;;;;;;4413915;28;657283;-72
2021/07/07 10:43:12;;;;;;;4.20;2.20;;;35.10;60.00;;;;;;4428574;28;656846;-72
2021/07/07 10:45:59;;;;;;;5.47;2.10;;;35.50;62.50;;;;;;4427153;28;656767;-71
2021/07/07 10:48:47;;;;;;;4.35;2.20;;;35.50;59.50;;;;;;4463159;28;658339;-72
2021/07/07 10:51:35;;;;;;;4.75;2.17;;;35.80;62.20;;;;;;4447687;28;656952;-71
2021/07/07 10:54:25;;;;;;;3.50;2.03;;;35.40;57.60;;;;;;4456559;28;657504;-71
2021/07/07 10:57:18;;;;;;;2.20;2.00;;;35.60;58.90;;;;;;4432400;28;656824;-71
2021/07/07 11:00:08;;;;;;;2.28;2.08;;;35.60;58.00;;;;;;4431888;28;656445;-69
2021/07/07 11:03:35;;;;;;;4.93;2.25;;;35.30;55.50;;;;;;4400904;28;656211;-70
2021/07/07 11:06:30;;;;;;;7.47;2.03;;;35.40;58.40;;;;;;4425803;28;657353;-71
2021/07/07 11:09:18;;;;;;;2.93;2.30;;;35.20;56.30;;;;;;4429277;28;656894;-71
2021/07/07 11:12:07;;;;;;;4.32;2.40;;;34.80;55.10;;;;;;4414958;28;657063;-70
2021/07/07 11:15:05;;;;;;;5.30;2.72;;;34.60;54.70;;;;;;4428473;28;656551;-70
2021/07/07 11:17:53;;;;;;;5.17;2.03;;;34.60;57.90;;;;;;4439679;28;657382;-71
2021/07/07 11:20:41;;;;;;;3.85;2.30;;;35.00;58.30;;;;;;4430863;28;657836;-71
2021/07/07 11:23:30;;;;;;;9.30;2.67;;;35.70;58.70;;;;;;4443663;28;657138;-70
2021/07/07 11:26:18;;;;;;;4.55;2.50;;;35.70;55.50;;;;;;4441030;28;656704;-71
2021/07/07 11:29:07;;;;;;;3.83;2.27;;;36.00;57.90;;;;;;4423407;28;656511;-70
2021/07/07 11:31:55;;;;;;;4.68;2.40;;;36.00;56.80;;;;;;4426406;28;656350;-70
2021/07/07 11:34:50;;;;;;;4.28;2.33;;;36.10;56.00;;;;;;4450678;28;656653;-70
2021/07/07 11:37:38;;;;;;;4.67;2.77;;;36.40;54.00;;;;;;4427919;28;657183;-70
2021/07/07 11:40:26;;;;;;;2.92;2.40;;;36.60;57.80;;;;;;4431857;28;657007;-70
2021/07/07 11:43:14;;;;;;;3.50;2.40;;;36.60;56.90;;;;;;4442106;28;656890;-72
2021/07/07 11:46:04;;;;;;;2.90;2.40;;;36.20;53.20;;;;;;4420144;28;657078;-71
2021/07/07 11:48:52;;;;;;;3.90;2.30;;;35.50;54.70;;;;;;4431426;28;656628;-71
2021/07/07 11:51:40;;;;;;;2.40;2.17;;;34.90;56.40;;;;;;4435148;28;656393;-70
2021/07/07 11:54:28;;;;;;;2.50;2.30;;;34.50;59.20;;;;;;4445609;28;657133;-71
2021/07/07 11:57:16;;;;;;;3.70;2.47;;;35.30;58.00;;;;;;4426518;28;656758;-70
2021/07/07 12:00:04;;;;;;;3.80;2.45;;;36.10;57.90;;;;;;4441167;28;656785;-70
2021/07/07 12:02:53;;;;;;;5.53;2.35;;;36.50;57.10;;;;;;4416780;28;657643;-71
2021/07/07 12:05:52;;;;;;;4.43;2.50;;;36.70;56.00;;;;;;4410611;28;657247;-71
2021/07/07 12:08:40;;;;;;;3.40;2.75;;;36.80;54.20;;;;;;4415554;28;657117;-71
2021/07/07 12:11:28;;;;;;;5.25;2.78;;;36.80;54.70;;;;;;4449754;28;656667;-72
2021/07/07 12:14:16;;;;;;;2.65;2.45;;;36.40;54.10;;;;;;4429941;28;656644;-72
2021/07/07 12:17:04;;;;;;;5.82;2.50;;;35.90;53.00;;;;;;4442841;28;656666;-72
2021/07/07 12:19:53;;;;;;;3.10;2.50;;;35.40;55.30;;;;;;4441943;28;656964;-72
2021/07/07 12:22:41;;;;;;;4.40;3.00;;;34.80;54.80;;;;;;4435032;28;656751;-72
2021/07/07 12:25:29;;;;;;;8.48;2.50;;;34.40;58.60;;;;;;4451327;28;656827;-72
2021/07/07 12:28:17;;;;;;;3.63;2.55;;;34.40;61.50;;;;;;4427527;28;657182;-72
2021/07/07 12:31:05;;;;;;;3.95;2.70;;;34.50;60.40;;;;;;4444376;28;656853;-70
2021/07/07 12:33:53;;;;;;;5.22;2.45;;;34.80;57.80;;;;;;4456840;28;658220;-72
2021/07/07 12:36:44;;;;;;;5.13;3.15;;;34.70;58.40;;;;;;4426692;28;656691;-71
2021/07/07 12:39:34;;;;;;;6.05;3.08;;;35.10;59.80;;;;;;4435403;28;657613;-72
2021/07/07 12:42:23;;;;;;;3.60;2.90;;;35.30;58.50;;;;;;4431268;28;657397;-72
2021/07/07 12:45:12;;;;;;;4.22;3.00;;;35.00;56.60;;;;;;4433690;28;656796;-71
2021/07/07 12:48:06;;;;;;;6.10;3.20;;;35.00;58.10;;;;;;4429936;28;656374;-70
2021/07/07 12:50:55;;;;;;;3.25;2.95;;;35.20;59.30;;;;;;4433998;28;656844;-70
2021/07/07 12:53:44;;;;;;;8.05;2.80;;;35.00;57.00;;;;;;4450051;28;657520;-72
2021/07/07 12:56:31;;;;;;;5.63;3.00;;;34.70;57.70;;;;;;4420906;28;657373;-72
2021/07/07 12:59:19;;;;;;;3.20;2.88;;;35.00;59.20;;;;;;4430947;28;656653;-70
2021/07/07 13:02:08;;;;;;;4.10;3.33;;;34.90;62.20;;;;;;4448695;28;657505;-72
2021/07/07 13:05:14;;;;;;;2.95;2.75;;;34.70;62.30;;;;;;4424519;28;656689;-71
2021/07/07 13:08:02;;;;;;;5.95;2.97;;;34.70;59.60;;;;;;4400148;28;657016;-72
2021/07/07 13:10:52;;;;;;;4.72;3.17;;;34.60;59.20;;;;;;4432855;28;656547;-71
2021/07/07 13:13:40;;;;;;;4.95;3.05;;;34.40;61.30;;;;;;4436287;28;656491;-70
2021/07/07 13:16:28;;;;;;;4.00;3.17;;;34.40;60.80;;;;;;4459199;28;657812;-72
2021/07/07 13:19:21;;;;;;;6.43;3.08;;;34.60;63.00;;;;;;4434210;28;656802;-71
2021/07/07 13:22:15;;;;;;;4.47;3.05;;;34.80;59.00;;;;;;4427276;28;657479;-70
2021/07/07 13:25:03;;;;;;;5.70;3.10;;;35.30;60.40;;;;;;4431070;28;657919;-72
2021/07/07 13:27:52;;;;;;;3.55;2.72;;;35.40;59.50;;;;;;4428583;28;656565;-71
2021/07/07 13:30:40;;;;;;;5.22;2.53;;;35.60;59.10;;;;;;4447517;28;656475;-70
2021/07/07 13:33:27;;;;;;;3.28;2.70;;;35.60;57.80;;;;;;4461995;28;657437;-71
2021/07/07 13:36:15;;;;;;;6.00;2.70;;;36.30;57.10;;;;;;4433231;28;656700;-71
2021/07/07 13:39:07;;;;;;;5.78;3.10;;;36.10;53.40;;;;;;4461994;28;657268;-72
2021/07/07 13:41:55;;;;;;;5.05;3.38;;;35.90;55.50;;;;;;4400558;28;656395;-70
2021/07/07 13:44:45;;;;;;;4.18;3.70;;;36.50;56.00;;;;;;4458695;28;656955;-72
2021/07/07 13:47:33;;;;;;;4.18;3.42;;;36.60;54.70;;;;;;4435343;28;657390;-73
2021/07/07 13:50:21;;;;;;;3.78;3.38;;;36.40;55.10;;;;;;4444117;28;656929;-72
2021/07/07 13:53:09;;;;;;;4.75;3.60;;;36.00;55.70;;;;;;4447356;28;656881;-72
2021/07/07 13:55:56;;;;;;;4.90;3.60;;;35.40;57.00;;;;;;4434698;28;657820;-72
2021/07/07 13:58:44;;;;;;;4.85;3.80;;;35.90;62.10;;;;;;4455152;28;656701;-70
2021/07/07 14:01:34;;;;;;;4.97;3.38;;;36.40;59.60;;;;;;4464600;28;657281;-72
2021/07/07 14:04:21;;;;;;;6.05;3.65;;;36.90;57.00;;;;;;4438443;28;657541;-72
2021/07/07 14:07:10;;;;;;;5.18;3.63;;;37.60;55.30;;;;;;4467673;28;656773;-70
2021/07/07 14:09:57;;;;;;;5.95;3.88;;;38.00;55.10;;;;;;4466539;28;657375;-71
2021/07/07 14:12:45;;;;;;;5.45;3.97;;;38.20;54.40;;;;;;4432877;28;656727;-70
2021/07/07 14:15:33;;;;;;;3.90;3.50;;;38.30;53.30;;;;;;4467484;28;657251;-71
2021/07/07 14:18:22;;;;;;;4.82;3.80;;;38.40;53.40;;;;;;4441442;28;656871;-72